sensor_id;sensor_type;location;lat;lon;timestamp;P1;durP1;ratioP1;P2;durP2;ratioP2
34988;SDS011;21192;40.182;44.516;2023-03-01T00:01:02;37.90;;;23.60;;
34988;SDS011;21192;40.182;44.516;2023-03-01T00:03:30;41.17;;;23.65;;
34988;SDS011;21192;40.182;44.516;2023-03-01T00:05:57;38.95;;;23.00;;
34988;SDS011;21192;40.182;44.516;2023-03-01T00:08:23;42.10;;;23.52;;
34988;SDS011;21192;40.182;44.516;2023-03-01T00:10:59;42.40;;;23.30;;
34988;SDS011;21192;40.182;44.516;2023-03-01T00:13:29;46.45;;;24.83;;
34988;SDS011;21192;40.182;44.516;2023-03-01T00:15:55;42.22;;;23.95;;
34988;SDS011;21192;40.182;44.516;2023-03-01T00:18:21;48.70;;;26.60;;
34988;SDS011;21192;40.182;44.516;2023-03-01T00:20:52;43.65;;;24.60;;
34988;SDS011;21192;40.182;44.516;2023-03-01T00:23:19;49.45;;;27.55;;
34988;SDS011;21192;40.182;44.516;2023-03-01T00:25:45;46.45;;;25.05;;
34988;SDS011;21192;40.182;44.516;2023-03-01T00:28:11;48.17;;;24.77;;
34988;SDS011;21192;40.182;44.516;2023-03-01T00:30:36;47.72;;;24.80;;
34988;SDS011;21192;40.182;44.516;2023-03-01T00:33:02;40.65;;;24.20;;
34988;SDS011;21192;40.182;44.516;2023-03-01T00:35:28;40.85;;;25.27;;
34988;SDS011;21192;40.182;44.516;2023-03-01T00:37:54;52.03;;;26.52;;
34988;SDS011;21192;40.182;44.516;2023-03-01T00:40:29;46.72;;;25.40;;
34988;SDS011;21192;40.182;44.516;2023-03-01T00:42:57;47.97;;;24.65;;
34988;SDS011;21192;40.182;44.516;2023-03-01T00:45:23;45.50;;;25.17;;
34988;SDS011;21192;40.182;44.516;2023-03-01T00:47:49;45.05;;;26.42;;
34988;SDS011;21192;40.182;44.516;2023-03-01T00:50:16;45.50;;;26.90;;
34988;SDS011;21192;40.182;44.516;2023-03-01T00:52:42;51.17;;;27.58;;
34988;SDS011;21192;40.182;44.516;2023-03-01T00:55:09;51.50;;;27.20;;
34988;SDS011;21192;40.182;44.516;2023-03-01T00:57:35;54.70;;;28.77;;
34988;SDS011;21192;40.182;44.516;2023-03-01T01:00:01;48.25;;;27.83;;
34988;SDS011;21192;40.182;44.516;2023-03-01T01:02:29;52.78;;;30.10;;
34988;SDS011;21192;40.182;44.516;2023-03-01T01:04:56;45.40;;;27.63;;
34988;SDS011;21192;40.182;44.516;2023-03-01T01:07:22;46.40;;;28.20;;
34988;SDS011;21192;40.182;44.516;2023-03-01T01:09:48;51.25;;;26.85;;
34988;SDS011;21192;40.182;44.516;2023-03-01T01:12:14;46.80;;;26.60;;
34988;SDS011;21192;40.182;44.516;2023-03-01T01:14:40;49.03;;;27.63;;
34988;SDS011;21192;40.182;44.516;2023-03-01T01:17:05;53.10;;;27.88;;
34988;SDS011;21192;40.182;44.516;2023-03-01T01:19:31;45.50;;;25.95;;
34988;SDS011;21192;40.182;44.516;2023-03-01T01:21:57;51.78;;;27.45;;
34988;SDS011;21192;40.182;44.516;2023-03-01T01:24:23;48.90;;;26.48;;
34988;SDS011;21192;40.182;44.516;2023-03-01T01:26:49;46.08;;;27.15;;
34988;SDS011;21192;40.182;44.516;2023-03-01T01:29:15;46.20;;;26.75;;
34988;SDS011;21192;40.182;44.516;2023-03-01T01:31:41;51.50;;;26.83;;
34988;SDS011;21192;40.182;44.516;2023-03-01T01:34:10;55.10;;;26.50;;
34988;SDS011;21192;40.182;44.516;2023-03-01T01:36:42;47.20;;;26.85;;
34988;SDS011;21192;40.182;44.516;2023-03-01T01:39:08;46.33;;;25.77;;
34988;SDS011;21192;40.182;44.516;2023-03-01T01:41:38;49.60;;;25.15;;
34988;SDS011;21192;40.182;44.516;2023-03-01T01:52:16;44.38;;;25.85;;
34988;SDS011;21192;40.182;44.516;2023-03-01T01:57:21;38.95;;;23.85;;
34988;SDS011;21192;40.182;44.516;2023-03-01T01:59:52;38.95;;;22.55;;
34988;SDS011;21192;40.182;44.516;2023-03-01T02:02:21;43.28;;;25.05;;
34988;SDS011;21192;40.182;44.516;2023-03-01T02:04:48;44.58;;;24.45;;
34988;SDS011;21192;40.182;44.516;2023-03-01T02:07:19;38.38;;;23.08;;
34988;SDS011;21192;40.182;44.516;2023-03-01T02:09:49;44.80;;;23.25;;
34988;SDS011;21192;40.182;44.516;2023-03-01T02:12:18;44.38;;;22.50;;
34988;SDS011;21192;40.182;44.516;2023-03-01T02:14:46;43.22;;;22.48;;
34988;SDS011;21192;40.182;44.516;2023-03-01T02:17:12;36.22;;;21.50;;
34988;SDS011;21192;40.182;44.516;2023-03-01T02:22:30;37.72;;;21.27;;
34988;SDS011;21192;40.182;44.516;2023-03-01T02:30:42;35.70;;;18.15;;
34988;SDS011;21192;40.182;44.516;2023-03-01T02:33:29;32.15;;;17.20;;
34988;SDS011;21192;40.182;44.516;2023-03-01T02:36:02;33.60;;;18.25;;
34988;SDS011;21192;40.182;44.516;2023-03-01T02:38:31;36.65;;;17.52;;
34988;SDS011;21192;40.182;44.516;2023-03-01T02:40:57;29.85;;;17.25;;
34988;SDS011;21192;40.182;44.516;2023-03-01T02:43:25;32.05;;;17.00;;
34988;SDS011;21192;40.182;44.516;2023-03-01T02:45:57;30.00;;;16.88;;
34988;SDS011;21192;40.182;44.516;2023-03-01T02:48:38;35.08;;;18.02;;
34988;SDS011;21192;40.182;44.516;2023-03-01T02:51:21;40.47;;;18.73;;
34988;SDS011;21192;40.182;44.516;2023-03-01T02:56:46;36.45;;;17.90;;
34988;SDS011;21192;40.182;44.516;2023-03-01T02:59:14;39.53;;;20.42;;
34988;SDS011;21192;40.182;44.516;2023-03-01T03:01:41;36.67;;;19.95;;
34988;SDS011;21192;40.182;44.516;2023-03-01T03:04:09;31.75;;;19.25;;
34988;SDS011;21192;40.182;44.516;2023-03-01T03:06:36;30.17;;;19.33;;
34988;SDS011;21192;40.182;44.516;2023-03-01T03:09:03;34.17;;;19.10;;
34988;SDS011;21192;40.182;44.516;2023-03-01T03:11:30;33.85;;;19.10;;
34988;SDS011;21192;40.182;44.516;2023-03-01T03:13:57;35.58;;;20.20;;
34988;SDS011;21192;40.182;44.516;2023-03-01T03:16:23;36.97;;;17.80;;
34988;SDS011;21192;40.182;44.516;2023-03-01T03:18:49;32.72;;;17.17;;
34988;SDS011;21192;40.182;44.516;2023-03-01T03:21:16;30.15;;;16.85;;
34988;SDS011;21192;40.182;44.516;2023-03-01T03:23:42;28.73;;;15.73;;
34988;SDS011;21192;40.182;44.516;2023-03-01T03:26:08;32.20;;;16.92;;
34988;SDS011;21192;40.182;44.516;2023-03-01T03:28:38;33.83;;;16.45;;
34988;SDS011;21192;40.182;44.516;2023-03-01T03:31:05;31.58;;;16.30;;
34988;SDS011;21192;40.182;44.516;2023-03-01T03:33:32;32.58;;;16.67;;
34988;SDS011;21192;40.182;44.516;2023-03-01T03:35:58;31.20;;;16.77;;
34988;SDS011;21192;40.182;44.516;2023-03-01T03:38:24;33.17;;;16.40;;
34988;SDS011;21192;40.182;44.516;2023-03-01T03:40:59;29.85;;;16.27;;
34988;SDS011;21192;40.182;44.516;2023-03-01T03:43:32;34.47;;;16.98;;
34988;SDS011;21192;40.182;44.516;2023-03-01T03:45:59;32.65;;;16.40;;
34988;SDS011;21192;40.182;44.516;2023-03-01T03:48:25;29.70;;;16.85;;
34988;SDS011;21192;40.182;44.516;2023-03-01T03:50:52;38.67;;;17.77;;
34988;SDS011;21192;40.182;44.516;2023-03-01T03:53:19;35.58;;;17.02;;
34988;SDS011;21192;40.182;44.516;2023-03-01T03:55:47;40.40;;;19.65;;
34988;SDS011;21192;40.182;44.516;2023-03-01T03:58:17;44.05;;;19.77;;
34988;SDS011;21192;40.182;44.516;2023-03-01T04:00:45;37.42;;;20.02;;
34988;SDS011;21192;40.182;44.516;2023-03-01T04:03:13;39.35;;;19.08;;
34988;SDS011;21192;40.182;44.516;2023-03-01T04:05:40;34.78;;;19.40;;
34988;SDS011;21192;40.182;44.516;2023-03-01T04:08:07;39.92;;;21.35;;
34988;SDS011;21192;40.182;44.516;2023-03-01T04:10:38;55.20;;;20.83;;
34988;SDS011;21192;40.182;44.516;2023-03-01T04:13:06;42.75;;;21.25;;
34988;SDS011;21192;40.182;44.516;2023-03-01T04:15:34;50.13;;;21.83;;
34988;SDS011;21192;40.182;44.516;2023-03-01T04:18:01;45.00;;;23.02;;
34988;SDS011;21192;40.182;44.516;2023-03-01T04:20:28;44.10;;;21.67;;
34988;SDS011;21192;40.182;44.516;2023-03-01T04:25:36;49.70;;;22.63;;
34988;SDS011;21192;40.182;44.516;2023-03-01T04:28:04;55.35;;;23.95;;
34988;SDS011;21192;40.182;44.516;2023-03-01T04:30:30;53.28;;;25.00;;
34988;SDS011;21192;40.182;44.516;2023-03-01T04:33:10;59.78;;;26.80;;
34988;SDS011;21192;40.182;44.516;2023-03-01T04:35:36;54.75;;;25.42;;
34988;SDS011;21192;40.182;44.516;2023-03-01T04:38:04;51.95;;;24.98;;
34988;SDS011;21192;40.182;44.516;2023-03-01T04:40:30;51.88;;;23.88;;
34988;SDS011;21192;40.182;44.516;2023-03-01T04:42:56;57.20;;;24.38;;
34988;SDS011;21192;40.182;44.516;2023-03-01T04:45:22;50.50;;;24.50;;
34988;SDS011;21192;40.182;44.516;2023-03-01T04:47:48;50.35;;;24.52;;
34988;SDS011;21192;40.182;44.516;2023-03-01T04:50:15;50.35;;;24.50;;
34988;SDS011;21192;40.182;44.516;2023-03-01T04:52:44;49.80;;;26.15;;
34988;SDS011;21192;40.182;44.516;2023-03-01T04:55:10;55.17;;;25.90;;
34988;SDS011;21192;40.182;44.516;2023-03-01T04:57:36;53.05;;;25.38;;
34988;SDS011;21192;40.182;44.516;2023-03-01T05:00:03;54.80;;;26.60;;
34988;SDS011;21192;40.182;44.516;2023-03-01T05:02:51;54.53;;;26.20;;
34988;SDS011;21192;40.182;44.516;2023-03-01T05:05:25;51.90;;;25.73;;
34988;SDS011;21192;40.182;44.516;2023-03-01T05:07:55;55.08;;;28.00;;
34988;SDS011;21192;40.182;44.516;2023-03-01T05:10:22;55.92;;;28.05;;
34988;SDS011;21192;40.182;44.516;2023-03-01T05:12:49;61.70;;;30.88;;
34988;SDS011;21192;40.182;44.516;2023-03-01T05:15:17;58.72;;;29.70;;
34988;SDS011;21192;40.182;44.516;2023-03-01T05:17:43;63.42;;;33.75;;
34988;SDS011;21192;40.182;44.516;2023-03-01T05:20:10;63.83;;;33.60;;
34988;SDS011;21192;40.182;44.516;2023-03-01T05:22:36;55.53;;;33.35;;
34988;SDS011;21192;40.182;44.516;2023-03-01T05:25:03;66.28;;;34.70;;
34988;SDS011;21192;40.182;44.516;2023-03-01T05:27:29;65.82;;;35.45;;
34988;SDS011;21192;40.182;44.516;2023-03-01T05:29:55;55.90;;;34.08;;
34988;SDS011;21192;40.182;44.516;2023-03-01T05:32:21;56.28;;;35.05;;
34988;SDS011;21192;40.182;44.516;2023-03-01T05:34:47;73.20;;;36.72;;
34988;SDS011;21192;40.182;44.516;2023-03-01T05:37:13;72.57;;;37.33;;
34988;SDS011;21192;40.182;44.516;2023-03-01T05:39:39;68.35;;;36.85;;
34988;SDS011;21192;40.182;44.516;2023-03-01T05:42:09;69.68;;;40.80;;
34988;SDS011;21192;40.182;44.516;2023-03-01T05:44:37;70.05;;;38.70;;
34988;SDS011;21192;40.182;44.516;2023-03-01T05:47:03;70.40;;;39.08;;
34988;SDS011;21192;40.182;44.516;2023-03-01T05:49:29;75.68;;;42.03;;
34988;SDS011;21192;40.182;44.516;2023-03-01T05:51:55;76.20;;;43.53;;
34988;SDS011;21192;40.182;44.516;2023-03-01T05:54:21;70.20;;;42.03;;
34988;SDS011;21192;40.182;44.516;2023-03-01T05:56:47;78.90;;;46.30;;
34988;SDS011;21192;40.182;44.516;2023-03-01T05:59:13;79.45;;;46.70;;
34988;SDS011;21192;40.182;44.516;2023-03-01T06:01:41;73.32;;;42.38;;
34988;SDS011;21192;40.182;44.516;2023-03-01T06:04:07;66.97;;;41.88;;
34988;SDS011;21192;40.182;44.516;2023-03-01T06:06:33;62.55;;;40.28;;
34988;SDS011;21192;40.182;44.516;2023-03-01T06:09:02;69.22;;;43.03;;
34988;SDS011;21192;40.182;44.516;2023-03-01T06:11:28;65.15;;;39.15;;
34988;SDS011;21192;40.182;44.516;2023-03-01T06:13:54;65.95;;;39.72;;
34988;SDS011;21192;40.182;44.516;2023-03-01T06:16:20;61.67;;;37.40;;
34988;SDS011;21192;40.182;44.516;2023-03-01T06:18:46;64.95;;;36.58;;
34988;SDS011;21192;40.182;44.516;2023-03-01T06:21:11;84.75;;;39.53;;
34988;SDS011;21192;40.182;44.516;2023-03-01T06:23:37;63.33;;;35.25;;
34988;SDS011;21192;40.182;44.516;2023-03-01T06:26:07;55.97;;;34.88;;
34988;SDS011;21192;40.182;44.516;2023-03-01T06:28:33;59.95;;;35.60;;
34988;SDS011;21192;40.182;44.516;2023-03-01T06:31:00;57.30;;;35.20;;
34988;SDS011;21192;40.182;44.516;2023-03-01T06:33:26;60.25;;;35.83;;
34988;SDS011;21192;40.182;44.516;2023-03-01T06:35:54;53.28;;;34.25;;
34988;SDS011;21192;40.182;44.516;2023-03-01T06:38:21;56.92;;;35.88;;
34988;SDS011;21192;40.182;44.516;2023-03-01T06:40:52;54.92;;;35.53;;
34988;SDS011;21192;40.182;44.516;2023-03-01T06:43:20;61.92;;;38.22;;
34988;SDS011;21192;40.182;44.516;2023-03-01T06:45:46;69.65;;;37.25;;
34988;SDS011;21192;40.182;44.516;2023-03-01T06:48:13;62.00;;;36.33;;
34988;SDS011;21192;40.182;44.516;2023-03-01T06:50:40;60.47;;;37.55;;
34988;SDS011;21192;40.182;44.516;2023-03-01T06:53:05;72.13;;;38.75;;
34988;SDS011;21192;40.182;44.516;2023-03-01T06:55:31;67.45;;;40.95;;
34988;SDS011;21192;40.182;44.516;2023-03-01T06:57:58;73.85;;;44.65;;
34988;SDS011;21192;40.182;44.516;2023-03-01T07:00:25;83.47;;;47.10;;
34988;SDS011;21192;40.182;44.516;2023-03-01T07:02:52;82.88;;;46.80;;
34988;SDS011;21192;40.182;44.516;2023-03-01T07:05:18;77.78;;;48.03;;
34988;SDS011;21192;40.182;44.516;2023-03-01T07:07:44;87.65;;;50.80;;
34988;SDS011;21192;40.182;44.516;2023-03-01T07:10:10;85.13;;;48.63;;
34988;SDS011;21192;40.182;44.516;2023-03-01T07:12:37;87.90;;;50.95;;
34988;SDS011;21192;40.182;44.516;2023-03-01T07:15:03;81.07;;;50.05;;
34988;SDS011;21192;40.182;44.516;2023-03-01T07:17:29;85.10;;;49.58;;
34988;SDS011;21192;40.182;44.516;2023-03-01T07:19:56;85.03;;;46.55;;
34988;SDS011;21192;40.182;44.516;2023-03-01T07:22:22;74.25;;;45.25;;
34988;SDS011;21192;40.182;44.516;2023-03-01T07:24:47;76.35;;;45.47;;
34988;SDS011;21192;40.182;44.516;2023-03-01T07:27:13;76.50;;;45.08;;
34988;SDS011;21192;40.182;44.516;2023-03-01T07:29:39;73.22;;;43.63;;
34988;SDS011;21192;40.182;44.516;2023-03-01T07:32:05;81.80;;;45.35;;
34988;SDS011;21192;40.182;44.516;2023-03-01T07:34:31;75.57;;;43.85;;
34988;SDS011;21192;40.182;44.516;2023-03-01T07:36:57;74.10;;;44.75;;
34988;SDS011;21192;40.182;44.516;2023-03-01T07:39:23;72.30;;;45.75;;
34988;SDS011;21192;40.182;44.516;2023-03-01T07:41:49;76.18;;;48.13;;
34988;SDS011;21192;40.182;44.516;2023-03-01T07:44:15;73.68;;;44.92;;
34988;SDS011;21192;40.182;44.516;2023-03-01T07:46:42;68.50;;;42.50;;
34988;SDS011;21192;40.182;44.516;2023-03-01T07:49:09;74.57;;;43.10;;
34988;SDS011;21192;40.182;44.516;2023-03-01T07:51:35;71.35;;;43.03;;
34988;SDS011;21192;40.182;44.516;2023-03-01T07:54:01;69.50;;;42.95;;
34988;SDS011;21192;40.182;44.516;2023-03-01T07:56:27;73.05;;;44.97;;
34988;SDS011;21192;40.182;44.516;2023-03-01T07:58:53;65.95;;;41.85;;
34988;SDS011;21192;40.182;44.516;2023-03-01T08:01:20;79.53;;;42.22;;
34988;SDS011;21192;40.182;44.516;2023-03-01T08:03:46;69.75;;;41.80;;
34988;SDS011;21192;40.182;44.516;2023-03-01T08:06:14;66.53;;;40.88;;
34988;SDS011;21192;40.182;44.516;2023-03-01T08:08:41;89.93;;;43.60;;
34988;SDS011;21192;40.182;44.516;2023-03-01T08:11:07;74.68;;;43.63;;
34988;SDS011;21192;40.182;44.516;2023-03-01T08:13:35;74.10;;;42.42;;
34988;SDS011;21192;40.182;44.516;2023-03-01T08:16:02;77.78;;;44.33;;
34988;SDS011;21192;40.182;44.516;2023-03-01T08:18:30;70.47;;;42.63;;
34988;SDS011;21192;40.182;44.516;2023-03-01T08:21:00;67.35;;;41.53;;
34988;SDS011;21192;40.182;44.516;2023-03-01T08:23:30;72.10;;;43.00;;
34988;SDS011;21192;40.182;44.516;2023-03-01T08:26:29;69.03;;;46.25;;
34988;SDS011;21192;40.182;44.516;2023-03-01T08:28:48;65.20;;;42.47;;
34988;SDS011;21192;40.182;44.516;2023-03-01T08:33:49;61.55;;;39.53;;
34988;SDS011;21192;40.182;44.516;2023-03-01T08:36:20;68.72;;;41.50;;
34988;SDS011;21192;40.182;44.516;2023-03-01T08:38:47;65.47;;;39.90;;
34988;SDS011;21192;40.182;44.516;2023-03-01T08:41:13;72.47;;;41.15;;
34988;SDS011;21192;40.182;44.516;2023-03-01T08:43:39;72.28;;;41.33;;
34988;SDS011;21192;40.182;44.516;2023-03-01T08:46:05;65.70;;;38.63;;
34988;SDS011;21192;40.182;44.516;2023-03-01T08:48:32;59.45;;;36.08;;
34988;SDS011;21192;40.182;44.516;2023-03-01T08:51:06;70.53;;;36.13;;
34988;SDS011;21192;40.182;44.516;2023-03-01T08:53:36;61.25;;;36.70;;
34988;SDS011;21192;40.182;44.516;2023-03-01T08:56:02;62.13;;;34.60;;
34988;SDS011;21192;40.182;44.516;2023-03-01T08:58:28;53.17;;;33.67;;
34988;SDS011;21192;40.182;44.516;2023-03-01T09:00:54;57.85;;;34.47;;
34988;SDS011;21192;40.182;44.516;2023-03-01T09:03:21;54.72;;;33.88;;
34988;SDS011;21192;40.182;44.516;2023-03-01T09:05:49;50.65;;;31.08;;
34988;SDS011;21192;40.182;44.516;2023-03-01T09:08:19;56.88;;;32.58;;
34988;SDS011;21192;40.182;44.516;2023-03-01T09:10:45;61.03;;;33.80;;
34988;SDS011;21192;40.182;44.516;2023-03-01T09:13:11;55.53;;;34.65;;
34988;SDS011;21192;40.182;44.516;2023-03-01T09:15:37;58.22;;;32.92;;
34988;SDS011;21192;40.182;44.516;2023-03-01T09:18:03;54.17;;;35.05;;
34988;SDS011;21192;40.182;44.516;2023-03-01T09:20:30;57.28;;;33.95;;
34988;SDS011;21192;40.182;44.516;2023-03-01T09:22:57;53.70;;;32.13;;
34988;SDS011;21192;40.182;44.516;2023-03-01T09:25:23;68.22;;;35.10;;
34988;SDS011;21192;40.182;44.516;2023-03-01T09:27:52;57.90;;;34.15;;
34988;SDS011;21192;40.182;44.516;2023-03-01T09:30:19;60.88;;;36.22;;
34988;SDS011;21192;40.182;44.516;2023-03-01T09:32:46;58.85;;;35.30;;
34988;SDS011;21192;40.182;44.516;2023-03-01T09:35:12;64.70;;;34.70;;
34988;SDS011;21192;40.182;44.516;2023-03-01T09:37:38;59.10;;;34.90;;
34988;SDS011;21192;40.182;44.516;2023-03-01T09:40:15;61.90;;;33.75;;
34988;SDS011;21192;40.182;44.516;2023-03-01T09:42:48;63.85;;;37.03;;
34988;SDS011;21192;40.182;44.516;2023-03-01T09:45:23;63.35;;;36.08;;
34988;SDS011;21192;40.182;44.516;2023-03-01T09:47:58;65.03;;;35.17;;
34988;SDS011;21192;40.182;44.516;2023-03-01T09:50:28;70.22;;;37.20;;
34988;SDS011;21192;40.182;44.516;2023-03-01T09:53:04;68.93;;;36.33;;
34988;SDS011;21192;40.182;44.516;2023-03-01T09:55:39;70.95;;;36.30;;
34988;SDS011;21192;40.182;44.516;2023-03-01T09:58:23;65.97;;;35.10;;
34988;SDS011;21192;40.182;44.516;2023-03-01T10:01:27;72.90;;;36.60;;
34988;SDS011;21192;40.182;44.516;2023-03-01T10:07:21;66.55;;;36.28;;
34988;SDS011;21192;40.182;44.516;2023-03-01T10:09:53;77.80;;;37.80;;
34988;SDS011;21192;40.182;44.516;2023-03-01T10:12:20;64.28;;;36.17;;
34988;SDS011;21192;40.182;44.516;2023-03-01T10:23:30;64.60;;;37.83;;
34988;SDS011;21192;40.182;44.516;2023-03-01T10:26:07;61.80;;;37.47;;
34988;SDS011;21192;40.182;44.516;2023-03-01T10:28:57;62.03;;;37.45;;
34988;SDS011;21192;40.182;44.516;2023-03-01T10:31:32;71.90;;;36.97;;
34988;SDS011;21192;40.182;44.516;2023-03-01T10:36:39;60.28;;;37.15;;
34988;SDS011;21192;40.182;44.516;2023-03-01T10:39:27;61.45;;;36.90;;
34988;SDS011;21192;40.182;44.516;2023-03-01T10:41:56;63.60;;;35.85;;
34988;SDS011;21192;40.182;44.516;2023-03-01T10:44:42;58.20;;;37.47;;
34988;SDS011;21192;40.182;44.516;2023-03-01T10:47:18;59.33;;;36.38;;
34988;SDS011;21192;40.182;44.516;2023-03-01T10:49:56;62.42;;;35.38;;
34988;SDS011;21192;40.182;44.516;2023-03-01T10:52:26;59.55;;;36.28;;
34988;SDS011;21192;40.182;44.516;2023-03-01T10:54:55;57.45;;;36.25;;
34988;SDS011;21192;40.182;44.516;2023-03-01T10:57:31;55.55;;;34.22;;
34988;SDS011;21192;40.182;44.516;2023-03-01T11:00:14;59.03;;;35.50;;
34988;SDS011;21192;40.182;44.516;2023-03-01T11:02:45;70.97;;;37.00;;
34988;SDS011;21192;40.182;44.516;2023-03-01T11:08:13;64.28;;;34.90;;
34988;SDS011;21192;40.182;44.516;2023-03-01T11:10:35;64.00;;;35.70;;
34988;SDS011;21192;40.182;44.516;2023-03-01T11:13:08;59.13;;;34.90;;
34988;SDS011;21192;40.182;44.516;2023-03-01T11:15:43;63.78;;;36.53;;
34988;SDS011;21192;40.182;44.516;2023-03-01T11:18:25;66.53;;;35.83;;
34988;SDS011;21192;40.182;44.516;2023-03-01T11:20:52;76.97;;;36.90;;
34988;SDS011;21192;40.182;44.516;2023-03-01T11:23:20;71.55;;;37.92;;
34988;SDS011;21192;40.182;44.516;2023-03-01T11:25:49;67.65;;;37.40;;
34988;SDS011;21192;40.182;44.516;2023-03-01T11:28:20;77.80;;;37.25;;
34988;SDS011;21192;40.182;44.516;2023-03-01T11:36:08;64.43;;;36.83;;
34988;SDS011;21192;40.182;44.516;2023-03-01T11:38:42;82.45;;;37.08;;
34988;SDS011;21192;40.182;44.516;2023-03-01T11:41:17;54.08;;;32.40;;
34988;SDS011;21192;40.182;44.516;2023-03-01T11:44:01;62.42;;;32.47;;
34988;SDS011;21192;40.182;44.516;2023-03-01T11:49:26;58.33;;;32.17;;
34988;SDS011;21192;40.182;44.516;2023-03-01T11:51:57;69.10;;;34.75;;
34988;SDS011;21192;40.182;44.516;2023-03-01T11:57:08;61.97;;;35.90;;
34988;SDS011;21192;40.182;44.516;2023-03-01T12:08:01;61.40;;;33.53;;
34988;SDS011;21192;40.182;44.516;2023-03-01T12:10:45;69.07;;;34.17;;
34988;SDS011;21192;40.182;44.516;2023-03-01T12:18:45;66.60;;;34.80;;
34988;SDS011;21192;40.182;44.516;2023-03-01T12:24:17;63.78;;;34.20;;
34988;SDS011;21192;40.182;44.516;2023-03-01T12:27:31;61.13;;;34.35;;
34988;SDS011;21192;40.182;44.516;2023-03-01T12:30:39;53.88;;;33.03;;
34988;SDS011;21192;40.182;44.516;2023-03-01T12:33:29;56.97;;;32.28;;
34988;SDS011;21192;40.182;44.516;2023-03-01T12:36:30;65.05;;;35.08;;
34988;SDS011;21192;40.182;44.516;2023-03-01T12:44:35;105.35;;;40.50;;
34988;SDS011;21192;40.182;44.516;2023-03-01T12:50:23;64.05;;;32.72;;
34988;SDS011;21192;40.182;44.516;2023-03-01T12:52:56;96.20;;;38.20;;
34988;SDS011;21192;40.182;44.516;2023-03-01T12:55:28;72.93;;;34.45;;
34988;SDS011;21192;40.182;44.516;2023-03-01T13:06:58;67.40;;;34.88;;
34988;SDS011;21192;40.182;44.516;2023-03-01T13:09:43;68.00;;;35.00;;
34988;SDS011;21192;40.182;44.516;2023-03-01T13:15:28;68.28;;;36.40;;
34988;SDS011;21192;40.182;44.516;2023-03-01T13:18:00;62.70;;;36.08;;
34988;SDS011;21192;40.182;44.516;2023-03-01T13:20:56;77.75;;;35.42;;
34988;SDS011;21192;40.182;44.516;2023-03-01T13:23:29;58.42;;;36.40;;
34988;SDS011;21192;40.182;44.516;2023-03-01T13:26:16;74.65;;;35.63;;
34988;SDS011;21192;40.182;44.516;2023-03-01T13:33:47;62.17;;;36.40;;
34988;SDS011;21192;40.182;44.516;2023-03-01T13:46:52;66.82;;;36.13;;
34988;SDS011;21192;40.182;44.516;2023-03-01T13:49:26;72.18;;;35.42;;
34988;SDS011;21192;40.182;44.516;2023-03-01T13:51:54;96.22;;;39.40;;
34988;SDS011;21192;40.182;44.516;2023-03-01T13:54:29;88.28;;;41.67;;
34988;SDS011;21192;40.182;44.516;2023-03-01T13:56:56;66.10;;;34.75;;
34988;SDS011;21192;40.182;44.516;2023-03-01T13:59:24;58.65;;;33.13;;
34988;SDS011;21192;40.182;44.516;2023-03-01T14:01:58;52.65;;;31.73;;
34988;SDS011;21192;40.182;44.516;2023-03-01T14:07:12;55.30;;;33.78;;
34988;SDS011;21192;40.182;44.516;2023-03-01T14:09:44;68.68;;;33.25;;
34988;SDS011;21192;40.182;44.516;2023-03-01T14:20:30;56.60;;;31.10;;
34988;SDS011;21192;40.182;44.516;2023-03-01T14:22:58;63.90;;;33.70;;
34988;SDS011;21192;40.182;44.516;2023-03-01T14:25:28;58.90;;;33.90;;
34988;SDS011;21192;40.182;44.516;2023-03-01T14:27:58;65.50;;;34.28;;
34988;SDS011;21192;40.182;44.516;2023-03-01T14:30:30;71.35;;;33.80;;
34988;SDS011;21192;40.182;44.516;2023-03-01T14:33:16;70.20;;;34.88;;
34988;SDS011;21192;40.182;44.516;2023-03-01T14:35:53;56.55;;;32.05;;
34988;SDS011;21192;40.182;44.516;2023-03-01T14:38:22;67.15;;;32.67;;
34988;SDS011;21192;40.182;44.516;2023-03-01T14:40:55;67.53;;;34.10;;
34988;SDS011;21192;40.182;44.516;2023-03-01T14:43:24;64.05;;;34.05;;
34988;SDS011;21192;40.182;44.516;2023-03-01T14:45:53;75.18;;;39.47;;
34988;SDS011;21192;40.182;44.516;2023-03-01T14:48:19;81.25;;;44.78;;
34988;SDS011;21192;40.182;44.516;2023-03-01T14:50:45;81.20;;;49.38;;
34988;SDS011;21192;40.182;44.516;2023-03-01T14:53:15;89.22;;;45.60;;
34988;SDS011;21192;40.182;44.516;2023-03-01T14:55:56;86.25;;;43.97;;
34988;SDS011;21192;40.182;44.516;2023-03-01T14:58:28;87.75;;;44.60;;
34988;SDS011;21192;40.182;44.516;2023-03-01T15:00:59;82.65;;;41.92;;
34988;SDS011;21192;40.182;44.516;2023-03-01T15:03:37;82.72;;;40.17;;
34988;SDS011;21192;40.182;44.516;2023-03-01T15:06:14;78.80;;;37.85;;
34988;SDS011;21192;40.182;44.516;2023-03-01T15:08:51;74.07;;;39.33;;
34988;SDS011;21192;40.182;44.516;2023-03-01T15:11:29;79.75;;;41.42;;
34988;SDS011;21192;40.182;44.516;2023-03-01T15:13:56;81.85;;;40.75;;
34988;SDS011;21192;40.182;44.516;2023-03-01T15:16:29;78.15;;;40.72;;
34988;SDS011;21192;40.182;44.516;2023-03-01T15:18:57;68.65;;;37.78;;
34988;SDS011;21192;40.182;44.516;2023-03-01T15:21:31;82.38;;;39.58;;
34988;SDS011;21192;40.182;44.516;2023-03-01T15:26:37;80.05;;;40.85;;
34988;SDS011;21192;40.182;44.516;2023-03-01T15:29:20;79.30;;;38.83;;
34988;SDS011;21192;40.182;44.516;2023-03-01T15:32:21;79.78;;;37.63;;
34988;SDS011;21192;40.182;44.516;2023-03-01T15:34:51;68.97;;;36.92;;
34988;SDS011;21192;40.182;44.516;2023-03-01T15:37:37;74.53;;;40.67;;
34988;SDS011;21192;40.182;44.516;2023-03-01T15:40:23;74.22;;;37.45;;
34988;SDS011;21192;40.182;44.516;2023-03-01T15:42:59;95.35;;;43.50;;
34988;SDS011;21192;40.182;44.516;2023-03-01T15:45:27;100.32;;;48.22;;
34988;SDS011;21192;40.182;44.516;2023-03-01T15:48:04;96.65;;;44.88;;
34988;SDS011;21192;40.182;44.516;2023-03-01T15:50:39;90.28;;;45.70;;
34988;SDS011;21192;40.182;44.516;2023-03-01T15:53:07;98.55;;;46.47;;
34988;SDS011;21192;40.182;44.516;2023-03-01T15:55:36;79.78;;;44.20;;
34988;SDS011;21192;40.182;44.516;2023-03-01T15:58:08;100.07;;;45.53;;
34988;SDS011;21192;40.182;44.516;2023-03-01T16:00:37;101.20;;;49.05;;
34988;SDS011;21192;40.182;44.516;2023-03-01T16:03:05;111.43;;;54.03;;
34988;SDS011;21192;40.182;44.516;2023-03-01T16:05:34;116.72;;;61.08;;
34988;SDS011;21192;40.182;44.516;2023-03-01T16:08:01;117.55;;;63.47;;
34988;SDS011;21192;40.182;44.516;2023-03-01T16:10:27;153.48;;;78.30;;
34988;SDS011;21192;40.182;44.516;2023-03-01T16:12:54;132.00;;;65.63;;
34988;SDS011;21192;40.182;44.516;2023-03-01T16:15:20;129.77;;;65.25;;
34988;SDS011;21192;40.182;44.516;2023-03-01T16:17:52;140.73;;;72.93;;
34988;SDS011;21192;40.182;44.516;2023-03-01T16:20:18;158.43;;;83.10;;
34988;SDS011;21192;40.182;44.516;2023-03-01T16:22:44;143.10;;;76.70;;
34988;SDS011;21192;40.182;44.516;2023-03-01T16:25:12;181.65;;;90.88;;
34988;SDS011;21192;40.182;44.516;2023-03-01T16:27:43;154.75;;;75.43;;